< < Back
Terminal Aerodrome Forecast


Current Version              Previous Versions:   1  2  3  4  5  6  7  8  9  

Terminal Aerodrome Forecast

934
FTUS42 KJAX 280525
TAFGNV
TAF
KGNV 280525Z 2806/2906 05005KT P6SM VCSH SCT025 SCT050 BKN090
     FM281300 07008KT P6SM VCSH SCT025 BKN040
     FM281600 07011KT P6SM VCSH SCT030 BKN040
     FM282300 06009KT P6SM SCT040 BKN120
     FM290200 04003KT P6SM SCT040 BKN120=



Latest METAR

681
SAUS70 KWBC 290200 RRA
MTRGNV
METAR KGNV 290153Z 06006KT 10SM CLR 26/22 A3000 RMK AO2 SLP157
T02610222


USA.gov is the U.S. government's official web portal to all federal, state and local government web resources and services.